Time;durP1;ratioP1;P1;durP2;ratioP2;P2;SDS_P1;SDS_P2;PMS_P1;PMS_P2;Temp;Humidity;BMP_temperature;BMP_pressure;BME280_temperature;BME280_humidity;BME280_pressure;Samples;Min_cycle;Max_cycle;Signal;HPM_P1;HPM_P2
2021/12/06 07:42:13;;;;;;;55.15;27.63;;;;;;;6.86;53.71;101225.91;4728637;29;96982;-81
2021/12/06 07:45:01;;;;;;;58.25;28.10;;;;;;;7.04;53.35;101230.06;4799385;29;99564;-79
2021/12/06 07:47:27;;;;;;;51.58;25.15;;;;;;;7.29;52.66;101230.59;4847610;29;101033;-79
2021/12/06 07:49:54;;;;;;;49.38;24.17;;;;;;;7.11;52.37;101229.97;4846904;28;96941;-78
2021/12/06 07:52:23;;;;;;;55.10;26.33;;;;;;;6.87;54.18;101232.03;4894383;28;96890;-80
2021/12/06 07:54:59;;;;;;;;;;;;;;;;;;;;;
2021/12/06 07:57:28;;;;;;;51.17;25.58;;;;;;;6.75;55.23;101239.19;4901732;28;128265;-79
2021/12/06 08:00:00;;;;;;;53.08;25.15;;;;;;;6.74;54.35;101234.81;4906277;28;97216;-80
2021/12/06 08:02:27;;;;;;;47.97;24.45;;;;;;;6.92;54.39;101233.72;4907871;28;97085;-78
2021/12/06 08:05:29;;;;;;;51.92;26.20;;;;;;;6.87;54.66;101242.56;4906074;28;98906;-79
2021/12/06 08:07:43;;;;;;;53.38;25.50;;;;;;;7.16;53.77;101245.66;4902887;28;98877;-80
2021/12/06 08:13:33;;;;;;;49.33;25.05;;;;;;;7.13;53.73;101238.69;4830198;29;96973;-78
2021/12/06 08:16:12;;;;;;;54.25;25.45;;;;;;;7.20;53.40;101252.63;4825640;29;101214;-79
2021/12/06 08:18:39;;;;;;;50.47;26.45;;;;;;;7.14;53.54;101248.34;4886957;28;99033;-81
2021/12/06 08:21:06;;;;;;;50.88;25.40;;;;;;;7.20;53.40;101247.38;4904172;28;97138;-79
2021/12/06 08:23:33;;;;;;;49.85;24.63;;;;;;;7.33;53.06;101256.81;4912860;28;97434;-80
2021/12/06 08:29:13;;;;;;;53.50;25.27;;;;;;;7.57;51.39;101259.09;4904992;28;99919;-81
2021/12/06 08:32:07;;;;;;;53.33;26.60;;;;;;;7.80;51.46;101252.63;4906826;28;96879;-80
2021/12/06 08:34:34;;;;;;;55.42;26.60;;;;;;;7.53;52.56;101262.66;4905745;28;97088;-80
2021/12/06 08:37:02;;;;;;;54.83;27.00;;;;;;;7.71;51.84;101255.38;4904491;28;98889;-78
2021/12/06 08:39:29;;;;;;;51.88;26.52;;;;;;;7.58;52.24;101262.59;4911372;28;99129;-80
2021/12/06 08:41:55;;;;;;;52.30;25.42;;;;;;;7.88;51.49;101264.72;4927671;28;97145;-79
2021/12/06 08:44:28;;;;;;;50.38;25.38;;;;;;;7.94;51.25;101261.16;4927786;28;96967;-79
2021/12/06 08:47:00;;;;;;;54.33;26.20;;;;;;;7.79;51.79;101257.00;4908931;28;96768;-78
2021/12/06 08:49:28;;;;;;;48.67;24.58;;;;;;;7.29;51.91;101252.47;4910857;28;99686;-78
2021/12/06 08:52:51;;;;;;;;;;;;;;;;;;;;;
2021/12/06 08:55:18;;;;;;;50.05;23.95;;;;;;;7.24;54.10;101261.31;4878804;28;117247;-78
2021/12/06 08:57:53;;;;;;;48.08;25.20;;;;;;;7.20;53.62;101271.91;4922064;28;99278;-79
2021/12/06 09:01:03;;;;;;;;;;;;;;;;;;;;;
2021/12/06 09:09:47;;;;;;;;;;;;;;;;;;;;;
2021/12/06 09:12:16;;;;;;;48.47;24.20;;;;;;;7.65;52.34;101292.31;4912276;28;127966;-78
2021/12/06 09:14:43;;;;;;;46.58;23.50;;;;;;;7.76;51.89;101296.50;4915683;28;97633;-80
2021/12/06 09:17:09;;;;;;;51.63;23.83;;;;;;;7.69;51.54;101292.22;4909065;28;97245;-79
2021/12/06 09:19:53;;;;;;;;;;;;;;;;;;;;;
2021/12/06 09:22:25;;;;;;;44.60;22.52;;;;;;;7.89;51.34;101282.25;4918460;28;125311;-80
2021/12/06 09:24:54;;;;;;;42.45;21.20;;;;;;;7.13;52.68;101293.03;4923350;28;96754;-78
2021/12/06 09:27:27;;;;;;;46.75;22.33;;;;;;;7.15;53.52;101288.63;4919820;28;96811;-79
2021/12/06 09:49:27;;;;;;;41.85;22.05;;;;;;;8.01;51.86;101308.38;4929771;28;98539;-82
2021/12/06 09:52:37;;;;;;;;;;;;;;;;;;;;;
2021/12/06 09:58:30;;;;;;;43.58;22.75;;;;;;;7.57;51.56;101302.94;4814659;29;97291;-78
2021/12/06 10:01:29;;;;;;;;;;;;;;;;;;;;;
2021/12/06 10:06:56;;;;;;;43.47;21.10;;;;;;;6.96;54.65;101302.84;4958271;23;97281;-79
2021/12/06 10:16:00;;;;;;;45.75;21.05;;;;;;;7.53;52.56;101296.84;4892509;28;97632;-79
2021/12/06 10:18:28;;;;;;;42.08;20.65;;;;;;;7.49;52.35;101297.78;4913073;28;98792;-79
2021/12/06 10:20:55;;;;;;;40.72;21.23;;;;;;;7.68;51.96;101293.09;4913888;28;97899;-81
2021/12/06 10:23:22;;;;;;;41.78;20.15;;;;;;;7.47;52.78;101291.69;4912699;28;97379;-80
2021/12/06 10:25:51;;;;;;;38.22;20.58;;;;;;;7.78;51.65;101292.09;4913154;28;98996;-82
2021/12/06 10:28:20;;;;;;;37.95;20.08;;;;;;;7.71;51.58;101287.81;4910542;28;97755;-79
2021/12/06 10:30:50;;;;;;;40.45;20.60;;;;;;;8.16;50.72;101280.06;4913049;28;96739;-82
2021/12/06 10:33:28;;;;;;;40.05;20.60;;;;;;;7.89;51.67;101281.38;4913022;28;96945;-79
2021/12/06 10:35:59;;;;;;;40.95;20.52;;;;;;;8.26;50.61;101276.41;4914010;28;99247;-80
2021/12/06 10:38:29;;;;;;;38.10;19.52;;;;;;;8.00;50.37;101282.09;4912583;28;99343;-80
2021/12/06 10:41:01;;;;;;;40.92;19.13;;;;;;;7.95;50.72;101270.75;4914968;28;96810;-82
2021/12/06 10:43:35;;;;;;;40.78;19.63;;;;;;;8.05;50.88;101271.50;4915394;28;96997;-77
2021/12/06 10:46:06;;;;;;;41.47;19.40;;;;;;;7.67;50.43;101272.13;4917378;28;96843;-82
2021/12/06 10:48:36;;;;;;;37.70;19.23;;;;;;;8.05;50.79;101256.56;4908956;28;98731;-80
2021/12/06 10:51:06;;;;;;;45.33;20.60;;;;;;;8.15;50.70;101263.41;4914137;28;97699;-79
2021/12/06 10:53:39;;;;;;;38.88;19.38;;;;;;;8.33;49.46;101249.09;4914382;28;96888;-79
2021/12/06 10:56:24;;;;;;;;;;;;;;;;;;;;;
2021/12/06 10:58:56;;;;;;;40.70;19.37;;;;;;;8.18;50.37;101257.22;4912590;28;126199;-81
2021/12/06 11:01:30;;;;;;;36.45;18.85;;;;;;;8.47;49.71;101252.31;4911966;28;97587;-80
2021/12/06 11:04:02;;;;;;;37.30;18.58;;;;;;;8.53;48.75;101244.31;4914830;28;96887;-80
2021/12/06 11:06:34;;;;;;;35.67;18.27;;;;;;;8.48;49.25;101245.28;4909119;28;99248;-81
2021/12/06 11:09:14;;;;;;;34.95;18.27;;;;;;;8.49;48.57;101245.25;4911412;28;100801;-78
2021/12/06 11:25:34;;;;;;;33.42;17.88;;;;;;;8.77;48.09;101229.78;5972891;23;96736;-79
2021/12/06 11:28:27;;;;;;;37.70;18.02;;;;;;;8.45;48.89;101225.16;4882675;28;99351;-80
2021/12/06 11:31:05;;;;;;;33.80;17.65;;;;;;;8.04;49.61;101225.88;4887989;28;98823;-81
2021/12/06 11:33:35;;;;;;;37.08;17.65;;;;;;;8.19;50.13;101222.13;4899905;28;97486;-79
2021/12/06 11:36:38;;;;;;;;;;;;;;;;;;;;;
2021/12/06 11:39:19;;;;;;;32.22;18.00;;;;;;;8.95;47.91;101218.84;4902462;28;128039;-79
2021/12/06 12:03:12;;;;;;;29.70;15.75;;;;;;;8.32;49.17;101218.41;4862168;28;101559;-80
2021/12/06 12:05:49;;;;;;;;;;;;;;;;;;;;;
2021/12/06 12:08:28;;;;;;;27.17;14.52;;;;;;;8.39;48.39;101213.00;4908407;28;128391;-82
2021/12/06 12:10:56;;;;;;;30.13;14.13;;;;;;;8.32;48.64;101224.53;4914327;28;96922;-79
2021/12/06 12:13:26;;;;;;;25.95;13.85;;;;;;;8.05;48.98;101225.00;4912014;28;96974;-79
2021/12/06 12:15:55;;;;;;;23.88;13.82;;;;;;;7.99;49.14;101230.38;4914344;28;98933;-80
2021/12/06 12:19:04;;;;;;;;;;;;;;;;;;;;;
2021/12/06 12:25:23;;;;;;;29.35;14.82;;;;;;;7.78;50.18;101230.72;4731346;29;96925;-81
2021/12/06 12:28:19;;;;;;;26.48;14.77;;;;;;;8.06;50.09;101236.38;4815613;28;98942;-81
2021/12/06 12:31:28;;;;;;;;;;;;;;;;;;;;;
2021/12/06 12:34:28;;;;;;;31.60;14.98;;;;;;;8.12;48.54;101231.00;4909147;28;117877;-80
2021/12/06 12:37:25;;;;;;;;;;;;;;;;;;;;;
2021/12/06 12:40:32;;;;;;;26.02;14.10;;;;;;;7.94;49.56;101245.38;4919177;28;125395;-78
2021/12/06 12:43:16;;;;;;;;;;;;;;;;;;;;;
2021/12/06 12:46:00;;;;;;;;;;;;;;;;;;;;;
2021/12/06 12:48:30;;;;;;;27.40;14.32;;;;;;;8.80;47.43;101230.59;4923174;28;117237;-80
2021/12/06 12:51:36;;;;;;;;;;;;;;;;;;;;;
2021/12/06 12:54:36;;;;;;;25.25;14.13;;;;;;;8.17;48.37;101235.28;4907871;28;126399;-81
2021/12/06 12:57:26;;;;;;;;;;;;;;;;;;;;;
2021/12/06 13:00:31;;;;;;;;;;;;;;;;;;;;;
2021/12/06 13:02:58;;;;;;;25.15;12.90;;;;;;;8.21;48.65;101238.72;4908731;28;124909;-80
2021/12/06 13:05:28;;;;;;;23.63;13.65;;;;;;;8.02;48.93;101233.78;4911783;22;98094;-80
2021/12/06 13:17:56;;;;;;;25.92;12.80;;;;;;;8.36;47.38;101230.59;5875080;23;99539;-80
2021/12/06 13:20:26;;;;;;;;;;;;;;;8.52;47.33;101225.91;4886415;28;97020;-81
2021/12/06 13:22:55;;;;;;;28.83;12.80;;;;;;;8.83;46.81;101226.16;4953218;28;98826;-80
2021/12/06 13:25:28;;;;;;;27.25;13.77;;;;;;;9.18;46.06;101221.88;4946504;28;98932;-79
2021/12/06 13:27:58;;;;;;;23.98;13.18;;;;;;;9.11;45.84;101216.78;4950222;28;99190;-78
2021/12/06 13:30:31;;;;;;;29.75;13.57;;;;;;;8.94;46.20;101219.75;4952876;28;97321;-82
2021/12/06 13:33:04;;;;;;;25.25;12.25;;;;;;;8.59;46.95;101217.88;4953318;28;96881;-81
2021/12/06 13:35:55;;;;;;;24.05;13.75;;;;;;;8.31;47.82;101214.03;4949280;28;100547;-80
2021/12/06 13:38:30;;;;;;;24.23;13.25;;;;;;;8.29;47.78;101214.00;4951081;28;98849;-80
2021/12/06 13:41:22;;;;;;;26.08;13.23;;;;;;;8.64;47.32;101204.59;4949559;28;96853;-81
2021/12/06 13:43:53;;;;;;;25.88;13.07;;;;;;;8.43;47.77;101215.53;4951681;28;98516;-78
2021/12/06 13:46:24;;;;;;;21.73;12.93;;;;;;;8.38;47.12;101211.25;4949847;28;98087;-80
2021/12/06 13:52:33;;;;;;;27.00;13.38;;;;;;;8.34;47.83;101206.03;4917706;28;96790;-78
2021/12/06 13:55:27;;;;;;;23.58;12.90;;;;;;;8.47;47.15;101204.91;4969138;28;97678;-81
2021/12/06 13:58:07;;;;;;;27.55;13.52;;;;;;;8.45;47.29;101213.75;4966752;28;98975;-79
2021/12/06 14:00:42;;;;;;;23.13;12.45;;;;;;;8.30;47.90;101214.88;4970911;28;98091;-79
2021/12/06 14:03:29;;;;;;;23.93;13.07;;;;;;;8.51;46.94;101211.00;4958848;28;97143;-79
2021/12/06 14:05:57;;;;;;;28.37;13.63;;;;;;;8.78;46.55;101211.31;4950585;28;97055;-78
2021/12/06 14:12:18;;;;;;;;;;;;;;;;;;;;;
2021/12/06 14:15:03;;;;;;;24.60;12.95;;;;;;;8.86;46.15;101220.84;4903395;28;116682;-82
2021/12/06 14:18:35;;;;;;;;;;;;;;;;;;;;;
2021/12/06 14:21:04;;;;;;;23.02;12.50;;;;;;;8.34;47.34;101222.72;4898769;28;127226;-78
2021/12/06 14:23:33;;;;;;;24.25;13.05;;;;;;;8.40;47.59;101219.97;4945998;28;101447;-80
2021/12/06 14:26:11;;;;;;;23.77;13.05;;;;;;;8.22;47.37;101227.31;4944546;28;96927;-78
2021/12/06 14:28:45;;;;;;;26.20;12.65;;;;;;;8.05;48.16;101218.84;4949981;28;96793;-78
2021/12/06 14:31:12;;;;;;;26.88;13.27;;;;;;;8.08;48.00;101218.78;4946469;28;98978;-77
2021/12/06 14:33:39;;;;;;;28.48;13.82;;;;;;;7.89;48.03;101219.09;4950315;28;100521;-78
2021/12/06 14:36:08;;;;;;;25.85;12.70;;;;;;;7.86;48.88;101221.81;4948279;28;96820;-78
2021/12/06 14:38:38;;;;;;;22.48;12.35;;;;;;;7.92;48.77;101219.06;4952471;28;96926;-78
2021/12/06 14:41:07;;;;;;;22.85;12.10;;;;;;;7.92;48.30;101223.47;4952913;28;96888;-78
2021/12/06 14:43:34;;;;;;;22.33;12.02;;;;;;;7.70;48.75;101228.19;4961627;28;98042;-80
2021/12/06 14:46:05;;;;;;;22.77;12.88;;;;;;;7.59;48.92;101232.78;4966387;28;96761;-78
2021/12/06 14:48:33;;;;;;;23.92;12.18;;;;;;;7.86;48.91;101228.84;4961437;28;97168;-79
2021/12/06 14:51:06;;;;;;;29.10;15.23;;;;;;;7.75;50.21;101233.38;4946494;28;97623;-79
2021/12/06 15:20:13;;;;;;;32.47;15.95;;;;;;;8.02;50.29;101243.44;4962965;23;96312;-80
2021/12/06 17:16:03;;;;;;;29.73;15.25;;;;;;;8.10;48.88;101217.00;5040532;22;98677;-83
2021/12/06 17:44:55;;;;;;;31.00;16.35;;;;;;;7.97;49.67;101208.47;5409076;23;99680;-82
2021/12/06 17:47:26;;;;;;;32.05;16.00;;;;;;;8.03;49.14;101216.25;4913932;28;96843;-79
2021/12/06 17:49:53;;;;;;;32.78;17.25;;;;;;;8.16;49.20;101206.34;4917449;28;96796;-78
2021/12/06 17:52:20;;;;;;;31.17;16.30;;;;;;;8.03;49.38;101205.72;4918197;28;98958;-77
2021/12/06 17:54:47;;;;;;;31.58;14.95;;;;;;;8.12;48.74;101207.31;4919944;28;101721;-76
2021/12/06 17:57:19;;;;;;;24.50;14.55;;;;;;;8.23;49.02;101198.31;4916934;28;97133;-76
2021/12/06 17:59:47;;;;;;;28.95;15.30;;;;;;;8.17;48.91;101201.06;4914674;28;97056;-76
2021/12/06 18:02:15;;;;;;;33.78;16.50;;;;;;;8.20;48.50;101201.03;4921752;28;99031;-77
2021/12/06 18:04:44;;;;;;;32.33;15.23;;;;;;;8.14;48.79;101198.47;4915101;28;98957;-77
2021/12/06 18:07:13;;;;;;;33.70;15.60;;;;;;;8.08;48.44;101193.34;4919404;28;96838;-77
2021/12/06 18:09:40;;;;;;;29.40;14.70;;;;;;;7.92;49.00;101198.03;4920192;28;96832;-76
2021/12/06 18:12:10;;;;;;;33.15;16.30;;;;;;;7.91;49.22;101193.66;4922971;28;99233;-77
2021/12/06 18:14:39;;;;;;;27.20;15.32;;;;;;;7.76;49.44;101191.28;4918659;28;99556;-77
2021/12/06 18:17:07;;;;;;;29.25;15.98;;;;;;;7.99;49.62;101185.63;4913530;28;97038;-77
2021/12/06 18:19:36;;;;;;;30.95;15.65;;;;;;;7.77;49.97;101174.59;4919649;28;96926;-77
2021/12/06 18:22:04;;;;;;;31.02;14.90;;;;;;;7.72;50.06;101181.72;4921610;28;98599;-77
2021/12/06 18:24:30;;;;;;;28.63;15.55;;;;;;;7.66;49.96;101183.56;4921627;28;98972;-77
2021/12/06 18:26:58;;;;;;;31.13;15.43;;;;;;;7.88;49.95;101170.00;4914894;28;98335;-76
2021/12/06 18:29:25;;;;;;;27.48;15.30;;;;;;;7.87;49.52;101170.94;4924516;28;96790;-76
2021/12/06 18:31:54;;;;;;;27.17;15.45;;;;;;;7.60;50.42;101180.16;4913487;28;101664;-76
2021/12/06 18:34:21;;;;;;;27.38;14.82;;;;;;;7.59;50.08;101172.28;4917465;28;97618;-76
2021/12/06 18:36:49;;;;;;;31.02;14.48;;;;;;;7.75;49.69;101163.22;4918412;28;96743;-76
2021/12/06 18:39:21;;;;;;;28.13;13.90;;;;;;;7.82;49.31;101163.97;4918112;28;96819;-76
2021/12/06 18:41:49;;;;;;;28.13;13.68;;;;;;;7.75;49.57;101151.81;4913511;28;98917;-76
2021/12/06 18:44:36;;;;;;;26.98;14.88;;;;;;;7.73;50.39;101153.63;4918622;28;98821;-76
2021/12/06 18:47:05;;;;;;;;;;;;;;;7.86;49.91;101145.50;4919556;28;96893;-75
2021/12/06 18:49:32;;;;;;;31.55;15.02;;;;;;;7.79;49.96;101149.13;4920829;28;97203;-75
2021/12/06 18:52:00;;;;;;;28.77;15.80;;;;;;;7.81;49.96;101149.13;4919061;28;99305;-76
2021/12/06 18:54:26;;;;;;;30.67;14.60;;;;;;;7.80;49.93;101143.00;4912515;28;99417;-77
2021/12/06 18:56:53;;;;;;;25.33;13.98;;;;;;;7.78;50.08;101149.16;4915753;28;96759;-76
2021/12/06 18:59:20;;;;;;;29.38;13.95;;;;;;;7.66;49.73;101139.72;4911305;28;96770;-76
2021/12/06 19:01:46;;;;;;;28.65;13.88;;;;;;;7.71;50.23;101142.25;4909181;28;99162;-75
2021/12/06 19:04:13;;;;;;;26.90;13.43;;;;;;;7.72;50.04;101144.88;4906504;28;100499;-76
2021/12/06 19:06:40;;;;;;;28.13;14.35;;;;;;;7.63;49.86;101138.91;4908788;28;97247;-76
2021/12/06 19:09:08;;;;;;;30.63;15.20;;;;;;;7.64;50.22;101148.53;4905668;28;96735;-76
2021/12/06 19:11:34;;;;;;;24.60;13.23;;;;;;;7.37;50.36;101145.47;4908611;28;99304;-76
2021/12/06 19:14:01;;;;;;;24.25;13.30;;;;;;;7.57;50.03;101146.00;4905397;28;99557;-76
2021/12/06 19:16:28;;;;;;;23.90;13.07;;;;;;;7.60;49.67;101147.72;4907344;28;96754;-76
2021/12/06 19:18:54;;;;;;;26.52;13.35;;;;;;;7.48;49.70;101146.13;4905488;28;97040;-75
2021/12/06 19:21:27;;;;;;;25.02;13.70;;;;;;;7.34;50.53;101147.28;4900915;28;99591;-76
2021/12/06 19:23:54;;;;;;;27.77;13.82;;;;;;;7.44;50.26;101146.22;4904200;28;99144;-76
2021/12/06 19:26:22;;;;;;;26.75;13.35;;;;;;;7.37;50.14;101149.84;4912536;28;97324;-77
2021/12/06 19:28:49;;;;;;;24.17;13.77;;;;;;;7.36;50.49;101141.09;4905294;28;97278;-76
2021/12/06 19:31:16;;;;;;;27.67;13.80;;;;;;;7.48;50.29;101154.03;4906696;28;99537;-77
2021/12/06 19:33:42;;;;;;;28.65;14.23;;;;;;;7.67;49.76;101143.22;4908985;28;100852;-78
2021/12/06 19:36:10;;;;;;;25.75;14.75;;;;;;;7.47;49.95;101139.19;4907598;28;96844;-77
2021/12/06 19:38:39;;;;;;;25.38;13.63;;;;;;;7.35;49.96;101138.50;4907080;28;96773;-77
2021/12/06 19:41:08;;;;;;;31.50;14.73;;;;;;;7.25;50.37;101136.91;4914166;28;98949;-77
2021/12/06 19:43:36;;;;;;;26.75;14.02;;;;;;;7.17;51.26;101137.00;4909019;28;96969;-76
2021/12/06 19:46:06;;;;;;;33.33;13.73;;;;;;;7.19;51.41;101132.59;4906424;28;96829;-77
2021/12/06 19:48:34;;;;;;;30.45;15.20;;;;;;;7.40;50.93;101119.13;4910783;28;96877;-75
2021/12/06 19:51:01;;;;;;;27.42;13.95;;;;;;;7.28;50.44;101121.09;4908770;28;99206;-76
2021/12/06 19:53:28;;;;;;;26.60;14.52;;;;;;;7.52;50.16;101129.44;4902888;28;97166;-76
2021/12/06 19:55:56;;;;;;;28.23;14.85;;;;;;;7.39;50.93;101122.66;4904316;28;96733;-76
2021/12/06 19:58:25;;;;;;;29.48;14.93;;;;;;;7.40;50.74;101123.53;4903041;28;97173;-76
2021/12/06 20:00:54;;;;;;;28.63;14.32;;;;;;;7.32;51.09;101121.00;4908624;28;99238;-77
2021/12/06 20:03:21;;;;;;;27.90;14.60;;;;;;;7.49;50.36;101113.69;4913123;28;99189;-77
2021/12/06 20:05:48;;;;;;;28.77;14.52;;;;;;;7.63;50.58;101117.84;4910475;28;96805;-77
2021/12/06 20:08:17;;;;;;;27.45;14.73;;;;;;;7.57;50.26;101116.19;4899919;28;96920;-77
2021/12/06 20:10:44;;;;;;;28.65;13.52;;;;;;;7.44;50.79;101114.69;4908299;28;99014;-76
2021/12/06 20:13:11;;;;;;;27.65;14.23;;;;;;;7.31;50.48;101119.28;4905410;28;98970;-77
2021/12/06 20:15:39;;;;;;;28.27;14.38;;;;;;;7.47;51.22;101110.25;4905260;28;96924;-76
2021/12/06 20:18:11;;;;;;;29.95;15.68;;;;;;;7.40;50.89;101113.00;4906765;28;96985;-76
2021/12/06 20:20:38;;;;;;;35.78;14.10;;;;;;;7.41;50.75;101107.72;4907389;28;98791;-76
2021/12/06 20:23:05;;;;;;;32.42;14.88;;;;;;;7.56;50.58;101111.84;4912205;28;97760;-76
2021/12/06 20:25:35;;;;;;;31.83;15.32;;;;;;;7.58;50.51;101108.28;4915045;28;98213;-77
2021/12/06 20:28:03;;;;;;;31.52;15.52;;;;;;;7.47;50.71;101104.13;4913758;28;96757;-77
2021/12/06 20:30:30;;;;;;;27.13;14.68;;;;;;;7.71;50.24;101097.56;4910787;28;99179;-79
2021/12/06 20:32:56;;;;;;;32.00;15.57;;;;;;;7.76;50.62;101101.81;4911084;28;99985;-76
2021/12/06 20:35:24;;;;;;;30.65;15.13;;;;;;;7.92;49.76;101102.41;4913756;28;96818;-77
2021/12/06 20:37:51;;;;;;;27.55;15.07;;;;;;;7.70;50.29;101095.81;4911076;28;97080;-77
2021/12/06 20:40:18;;;;;;;32.58;15.65;;;;;;;7.56;50.76;101089.03;4906181;28;99556;-77
2021/12/06 20:42:45;;;;;;;29.23;14.65;;;;;;;7.39;51.08;101088.47;4912188;28;98875;-77
2021/12/06 20:45:12;;;;;;;29.45;15.85;;;;;;;7.59;51.17;101089.00;4913672;28;96894;-76
2021/12/06 20:47:41;;;;;;;26.67;14.90;;;;;;;7.60;50.78;101088.09;4910150;28;96908;-76
2021/12/06 20:50:09;;;;;;;30.33;16.10;;;;;;;7.48;51.11;101090.09;4910661;28;99071;-76
2021/12/06 20:52:37;;;;;;;31.33;15.73;;;;;;;7.74;49.94;101079.09;4910425;28;98966;-77
2021/12/06 20:55:04;;;;;;;31.73;15.57;;;;;;;7.79;50.46;101078.09;4910367;28;97200;-77
2021/12/06 20:57:31;;;;;;;28.85;15.30;;;;;;;7.75;50.35;101072.91;4908512;28;96834;-76
2021/12/06 20:59:57;;;;;;;33.13;16.02;;;;;;;7.65;50.56;101077.50;4915039;28;96757;-78
2021/12/06 21:02:24;;;;;;;29.98;16.10;;;;;;;7.70;50.56;101080.91;4906018;28;97977;-77
2021/12/06 21:04:53;;;;;;;28.98;16.08;;;;;;;7.42;50.89;101083.16;4906205;28;96661;-76
